createdAt,value
2019-03-01T00:01:21.120Z,10.00
2019-03-01T00:04:03.698Z,9.90
2019-03-01T00:06:56.952Z,9.90
2019-03-01T00:10:08.701Z,9.90
2019-03-01T00:13:19.131Z,9.90
2019-03-01T00:16:26.759Z,9.80
2019-03-01T00:19:52.311Z,9.80
2019-03-01T00:23:01.607Z,9.60
2019-03-01T00:25:53.389Z,9.60
2019-03-01T00:28:45.892Z,9.50
2019-03-01T00:31:38.214Z,9.40
2019-03-01T00:34:38.672Z,9.40
2019-03-01T00:37:53.008Z,9.40
2019-03-01T00:40:48.148Z,9.30
2019-03-01T00:43:42.941Z,9.30
2019-03-01T00:46:31.405Z,9.20
2019-03-01T00:49:00.681Z,9.10
2019-03-01T00:51:29.913Z,9.00
2019-03-01T00:53:59.236Z,9.10
2019-03-01T00:56:28.506Z,9.00
2019-03-01T00:58:57.707Z,9.00
2019-03-01T01:01:27.059Z,8.90
2019-03-01T01:03:56.285Z,8.90
2019-03-01T01:06:25.527Z,8.90
2019-03-01T01:08:54.768Z,8.90
2019-03-01T01:11:23.883Z,8.90
2019-03-01T01:13:53.268Z,8.90
2019-03-01T01:16:22.481Z,8.90
2019-03-01T01:18:51.751Z,8.90
2019-03-01T01:21:20.856Z,8.90
2019-03-01T01:23:50.048Z,8.90
2019-03-01T01:26:19.437Z,8.90
2019-03-01T01:28:48.633Z,8.80
2019-03-01T01:31:17.887Z,8.80
2019-03-01T01:33:47.031Z,8.80
2019-03-01T01:36:16.114Z,8.70
2019-03-01T01:38:45.305Z,8.70
2019-03-01T01:41:14.462Z,8.60
2019-03-01T01:43:43.839Z,8.60
2019-03-01T01:46:13.077Z,8.60
2019-03-01T01:48:42.290Z,8.70
2019-03-01T01:51:11.491Z,8.70
2019-03-01T01:53:40.808Z,8.60
2019-03-01T01:56:09.948Z,8.60
2019-03-01T01:58:39.106Z,8.60
2019-03-01T02:01:08.425Z,8.60
2019-03-01T02:03:37.663Z,8.60
2019-03-01T02:06:06.791Z,8.70
2019-03-01T02:08:36.091Z,8.60
2019-03-01T02:11:05.316Z,8.70
2019-03-01T02:13:34.541Z,8.60
2019-03-01T02:16:03.822Z,8.60
2019-03-01T02:18:32.913Z,8.60
2019-03-01T02:21:02.219Z,8.60
2019-03-01T02:23:31.655Z,8.50
2019-03-01T02:26:00.845Z,8.50
2019-03-01T02:28:30.031Z,8.50
2019-03-01T02:31:00.026Z,8.50
2019-03-01T02:33:29.267Z,8.50
2019-03-01T02:35:58.426Z,8.60
2019-03-01T02:38:27.664Z,8.50
2019-03-01T02:40:56.935Z,8.50
2019-03-01T02:43:26.042Z,8.50
2019-03-01T02:45:55.280Z,8.50
2019-03-01T02:48:24.405Z,8.50
2019-03-01T02:50:53.516Z,8.50
2019-03-01T02:53:22.612Z,8.50
2019-03-01T02:55:51.717Z,8.50
2019-03-01T02:58:20.960Z,8.50
2019-03-01T03:00:50.162Z,8.50
2019-03-01T03:03:19.390Z,8.40
2019-03-01T03:06:00.008Z,8.40
2019-03-01T03:08:29.247Z,8.40
2019-03-01T03:10:58.429Z,8.40
2019-03-01T03:13:27.708Z,8.40
2019-03-01T03:15:58.518Z,8.40
2019-03-01T03:18:27.777Z,8.40
2019-03-01T03:20:56.961Z,8.40
2019-03-01T03:23:26.038Z,8.40
2019-03-01T03:25:55.223Z,8.40
2019-03-01T03:28:24.534Z,8.40
2019-03-01T03:30:53.800Z,8.40
2019-03-01T03:33:22.909Z,8.40
2019-03-01T03:35:52.112Z,8.40
2019-03-01T03:38:21.317Z,8.40
2019-03-01T03:40:50.607Z,8.40
2019-03-01T03:43:22.558Z,8.40
2019-03-01T03:45:50.717Z,8.40
2019-03-01T03:48:19.848Z,8.40
2019-03-01T03:50:49.177Z,8.40
2019-03-01T03:53:18.283Z,8.40
2019-03-01T03:55:47.441Z,8.50
2019-03-01T03:58:16.561Z,8.50
2019-03-01T04:00:45.674Z,8.50
2019-03-01T04:03:14.795Z,8.40
2019-03-01T04:05:44.277Z,8.50
2019-03-01T04:08:13.576Z,8.50
2019-03-01T04:10:42.913Z,8.50
2019-03-01T04:13:12.151Z,8.50
2019-03-01T04:15:41.438Z,8.50
2019-03-01T04:18:10.961Z,8.50
2019-03-01T04:20:40.219Z,8.50
2019-03-01T04:23:09.406Z,8.50
2019-03-01T04:25:38.804Z,8.50
2019-03-01T04:28:08.135Z,8.60
2019-03-01T04:30:37.444Z,8.60
2019-03-01T04:33:06.916Z,8.60
2019-03-01T04:35:36.235Z,8.60
2019-03-01T04:38:05.522Z,8.60
2019-03-01T04:40:34.793Z,8.60
2019-03-01T04:43:03.904Z,8.60
2019-03-01T04:45:33.065Z,8.60
2019-03-01T04:48:02.428Z,8.60
2019-03-01T04:50:31.672Z,8.60
2019-03-01T04:53:19.951Z,8.60
2019-03-01T04:55:49.039Z,8.60
2019-03-01T04:58:18.124Z,8.70
2019-03-01T05:00:47.260Z,8.70
2019-03-01T05:03:16.423Z,8.70
2019-03-01T05:05:45.639Z,8.80
2019-03-01T05:08:14.756Z,8.70
2019-03-01T05:10:44.190Z,8.80
2019-03-01T05:13:13.379Z,8.80
2019-03-01T05:15:42.619Z,8.80
2019-03-01T05:18:11.854Z,8.80
2019-03-01T05:20:41.020Z,8.80
2019-03-01T05:23:10.142Z,8.90
2019-03-01T05:25:39.312Z,8.90
2019-03-01T05:28:08.356Z,8.90
2019-03-01T05:30:37.486Z,8.80
2019-03-01T05:33:06.564Z,8.80
2019-03-01T05:35:35.820Z,8.80
2019-03-01T05:38:05.100Z,8.80
2019-03-01T05:40:34.336Z,8.80
2019-03-01T05:43:03.604Z,8.90
2019-03-01T05:45:33.038Z,8.90
2019-03-01T05:48:02.195Z,8.90
2019-03-01T05:50:31.475Z,8.90
2019-03-01T05:53:00.585Z,8.90
2019-03-01T05:55:29.687Z,8.90
2019-03-01T05:58:28.058Z,8.90
2019-03-01T06:00:59.861Z,8.90
2019-03-01T06:03:55.236Z,8.90
2019-03-01T06:06:33.927Z,8.90
2019-03-01T06:09:40.242Z,8.90
2019-03-01T06:12:43.013Z,8.90
2019-03-01T06:15:38.832Z,8.90
2019-03-01T06:18:37.258Z,8.90
2019-03-01T06:21:39.095Z,8.90
2019-03-01T06:24:34.456Z,8.90
2019-03-01T06:27:31.634Z,8.80
2019-03-01T06:30:51.483Z,8.60
2019-03-01T06:33:45.619Z,8.50
2019-03-01T06:36:27.710Z,8.50
2019-03-01T06:39:39.586Z,8.30
2019-03-01T06:42:30.576Z,8.30
2019-03-01T06:45:30.742Z,8.10
2019-03-01T06:47:59.850Z,8.10
2019-03-01T06:50:45.620Z,8.00
2019-03-01T06:53:14.749Z,8.00
2019-03-01T06:56:06.841Z,7.90
2019-03-01T06:59:06.002Z,7.90
2019-03-01T07:01:38.349Z,8.00
2019-03-01T07:04:17.381Z,7.90
2019-03-01T07:06:47.810Z,7.90
2019-03-01T07:09:17.258Z,7.90
2019-03-01T07:11:47.293Z,7.80
2019-03-01T07:14:18.653Z,7.90
2019-03-01T07:16:47.932Z,7.80
2019-03-01T07:19:18.496Z,7.80
2019-03-01T07:21:47.771Z,7.80
2019-03-01T07:24:18.042Z,7.70
2019-03-01T07:26:47.942Z,7.70
2019-03-01T07:29:17.210Z,7.80
2019-03-01T07:31:47.106Z,7.70
2019-03-01T07:34:16.465Z,7.70
2019-03-01T07:36:45.609Z,7.70
2019-03-01T07:39:14.967Z,7.70
2019-03-01T07:41:44.236Z,7.70
2019-03-01T07:44:16.099Z,7.70
2019-03-01T07:46:52.958Z,7.80
2019-03-01T07:49:17.548Z,7.70
2019-03-01T07:51:48.949Z,7.70
2019-03-01T07:54:18.133Z,7.60
2019-03-01T07:56:49.407Z,7.70
2019-03-01T07:59:20.294Z,7.60
2019-03-01T08:01:49.414Z,7.60
2019-03-01T08:04:18.570Z,7.60
2019-03-01T08:06:48.752Z,7.60
2019-03-01T08:09:18.760Z,7.60
2019-03-01T08:11:47.864Z,7.60
2019-03-01T08:14:17.015Z,7.60
2019-03-01T08:16:46.454Z,7.60
2019-03-01T08:19:22.587Z,7.60
2019-03-01T08:21:49.715Z,7.60
2019-03-01T08:24:17.663Z,7.60
2019-03-01T08:26:46.840Z,7.60
2019-03-01T08:29:16.191Z,7.60
2019-03-01T08:31:45.328Z,7.60
2019-03-01T08:34:17.656Z,7.60
2019-03-01T08:36:45.485Z,7.60
2019-03-01T08:39:14.876Z,7.60
2019-03-01T08:41:44.194Z,7.60
2019-03-01T08:44:13.299Z,7.60
2019-03-01T08:46:45.587Z,7.60
2019-03-01T08:49:13.517Z,7.70
2019-03-01T08:51:42.749Z,7.70
2019-03-01T08:54:11.952Z,7.70
2019-03-01T08:56:41.088Z,7.60
2019-03-01T08:59:10.204Z,7.60
2019-03-01T09:01:41.752Z,7.70
2019-03-01T09:04:14.264Z,7.60
2019-03-01T09:06:43.198Z,7.60
2019-03-01T09:09:12.409Z,7.60
2019-03-01T09:11:44.396Z,7.60
2019-03-01T09:14:12.500Z,7.70
2019-03-01T09:16:41.733Z,7.70
2019-03-01T09:19:10.952Z,7.80
2019-03-01T09:21:40.434Z,7.80
2019-03-01T09:24:09.712Z,7.90
2019-03-01T09:26:38.947Z,7.80
2019-03-01T09:29:12.954Z,7.80
2019-03-01T09:31:41.687Z,7.80
2019-03-01T09:34:10.785Z,7.90
2019-03-01T09:36:44.061Z,7.90
2019-03-01T09:39:14.532Z,7.90
2019-03-01T09:41:44.196Z,7.90
2019-03-01T09:44:13.818Z,7.90
2019-03-01T09:46:43.044Z,7.80
2019-03-01T09:49:12.193Z,7.90
2019-03-01T09:51:43.653Z,7.90
2019-03-01T09:54:12.393Z,7.90
2019-03-01T09:56:41.613Z,7.90
2019-03-01T09:59:11.127Z,7.90
2019-03-01T10:01:40.403Z,8.00
2019-03-01T10:04:09.691Z,8.00
2019-03-01T10:06:38.966Z,8.00
2019-03-01T10:09:11.967Z,8.00
2019-03-01T10:11:41.165Z,8.00
2019-03-01T10:14:10.249Z,7.90
2019-03-01T10:16:39.339Z,7.80
2019-03-01T10:19:08.436Z,7.80
2019-03-01T10:21:37.765Z,7.90
2019-03-01T10:24:07.168Z,8.00
2019-03-01T10:26:36.385Z,8.00
2019-03-01T10:29:05.617Z,8.10
2019-03-01T10:31:34.717Z,8.20
2019-03-01T10:34:03.879Z,8.20
2019-03-01T10:36:33.009Z,8.40
2019-03-01T10:39:04.720Z,8.40
2019-03-01T10:41:33.916Z,8.50
2019-03-01T10:44:03.037Z,8.40
2019-03-01T10:46:32.119Z,8.50
2019-03-01T10:49:01.575Z,8.70
2019-03-01T10:51:30.694Z,8.70
2019-03-01T10:53:59.720Z,8.70
2019-03-01T10:56:28.815Z,8.50
2019-03-01T10:58:58.515Z,8.40
2019-03-01T11:01:27.857Z,8.30
2019-03-01T11:03:57.037Z,8.30
2019-03-01T11:06:26.198Z,8.20
2019-03-01T11:08:55.443Z,8.30
2019-03-01T11:11:24.588Z,8.30
2019-03-01T11:13:53.848Z,8.30
2019-03-01T11:16:22.852Z,8.50
2019-03-01T11:18:52.038Z,8.60
2019-03-01T11:21:21.983Z,8.50
2019-03-01T11:23:52.078Z,8.70
2019-03-01T11:26:22.218Z,8.60
2019-03-01T11:28:52.093Z,8.50
2019-03-01T11:31:21.369Z,8.60
2019-03-01T11:33:50.577Z,8.60
2019-03-01T11:36:19.741Z,8.60
2019-03-01T11:38:49.232Z,8.60
2019-03-01T11:41:18.339Z,8.70
2019-03-01T11:43:47.459Z,8.60
2019-03-01T11:46:18.115Z,8.50
2019-03-01T11:48:47.249Z,8.50
2019-03-01T11:51:16.420Z,8.50
2019-03-01T11:53:45.715Z,8.60
2019-03-01T11:56:14.947Z,8.70
2019-03-01T11:58:44.253Z,8.70
2019-03-01T12:01:17.220Z,8.70
2019-03-01T12:03:44.575Z,8.80
2019-03-01T12:06:13.783Z,8.80
2019-03-01T12:08:42.939Z,8.80
2019-03-01T12:11:12.329Z,8.70
2019-03-01T12:13:41.714Z,8.80
2019-03-01T12:16:11.085Z,8.80
2019-03-01T12:18:40.396Z,8.70
2019-03-01T12:21:09.623Z,8.70
2019-03-01T12:23:38.992Z,8.70
2019-03-01T12:26:08.235Z,8.60
2019-03-01T12:28:37.545Z,8.50
2019-03-01T12:31:06.804Z,8.40
2019-03-01T12:33:36.204Z,8.40
2019-03-01T12:36:05.424Z,8.50
2019-03-01T12:38:34.867Z,8.60
2019-03-01T12:41:04.137Z,8.60
2019-03-01T12:43:33.707Z,8.80
2019-03-01T12:46:02.905Z,8.70
2019-03-01T12:48:32.238Z,8.80
2019-03-01T12:51:01.561Z,8.80
2019-03-01T12:53:30.795Z,8.80
2019-03-01T12:55:59.948Z,8.80
2019-03-01T12:58:29.201Z,8.80
2019-03-01T13:00:58.461Z,8.90
2019-03-01T13:03:27.621Z,8.90
2019-03-01T13:05:57.311Z,8.90
2019-03-01T13:08:26.446Z,8.90
2019-03-01T13:10:55.653Z,8.90
2019-03-01T13:13:25.198Z,8.80
2019-03-01T13:15:54.742Z,8.80
2019-03-01T13:18:23.896Z,8.80
2019-03-01T13:21:12.943Z,8.80
2019-03-01T13:23:42.869Z,8.70
2019-03-01T13:26:12.037Z,8.70
2019-03-01T13:28:43.868Z,8.50
2019-03-01T13:31:12.281Z,8.40
2019-03-01T13:33:41.652Z,8.40
2019-03-01T13:36:10.929Z,8.30
2019-03-01T13:38:40.304Z,8.30
2019-03-01T13:41:09.615Z,8.30
2019-03-01T13:43:38.872Z,8.30
2019-03-01T13:46:08.222Z,8.30
2019-03-01T13:48:37.449Z,8.40
2019-03-01T13:51:06.777Z,8.50
2019-03-01T13:53:36.061Z,8.50
2019-03-01T13:56:05.328Z,8.40
2019-03-01T13:58:34.625Z,8.40
2019-03-01T14:01:03.850Z,8.40
2019-03-01T14:03:33.244Z,8.50
2019-03-01T14:06:02.458Z,8.60
2019-03-01T14:08:31.717Z,8.70
2019-03-01T14:11:00.873Z,8.70
2019-03-01T14:13:29.998Z,8.80
2019-03-01T14:15:59.143Z,8.70
2019-03-01T14:18:28.351Z,8.70
2019-03-01T14:20:57.992Z,8.70
2019-03-01T14:23:28.322Z,8.80
2019-03-01T14:25:57.415Z,8.70
2019-03-01T14:28:27.066Z,8.80
2019-03-01T14:30:56.188Z,8.70
2019-03-01T14:33:25.245Z,8.70
2019-03-01T14:35:54.445Z,8.70
2019-03-01T14:38:23.672Z,8.80
2019-03-01T14:40:52.838Z,8.80
2019-03-01T14:43:23.952Z,8.90
2019-03-01T14:45:52.999Z,8.80
2019-03-01T14:48:22.245Z,8.80
2019-03-01T14:50:51.399Z,8.80
2019-03-01T14:53:20.573Z,8.90
2019-03-01T14:55:55.671Z,8.90
2019-03-01T14:58:34.572Z,8.90
2019-03-01T15:01:36.960Z,8.90
2019-03-01T15:04:06.285Z,9.00
2019-03-01T15:06:37.196Z,9.00
2019-03-01T15:09:08.067Z,8.90
2019-03-01T15:11:37.289Z,8.90
2019-03-01T15:14:12.270Z,8.90
2019-03-01T15:16:39.324Z,8.90
2019-03-01T15:19:09.188Z,8.90
2019-03-01T15:21:38.973Z,8.90
2019-03-01T15:24:08.188Z,8.80
2019-03-01T15:26:37.565Z,8.90
2019-03-01T15:29:06.668Z,8.90
2019-03-01T15:31:35.833Z,9.00
2019-03-01T15:34:05.108Z,9.00
2019-03-01T15:36:34.420Z,8.90
2019-03-01T15:39:05.151Z,9.00
2019-03-01T15:41:34.544Z,9.00
2019-03-01T15:44:03.785Z,8.90
2019-03-01T15:46:33.063Z,8.90
2019-03-01T15:49:02.290Z,8.80
2019-03-01T15:51:34.645Z,8.90
2019-03-01T15:54:02.574Z,8.90
2019-03-01T15:56:31.804Z,8.90
2019-03-01T15:59:01.120Z,8.90
2019-03-01T16:01:30.361Z,8.90
2019-03-01T16:03:59.569Z,8.90
2019-03-01T16:06:28.935Z,8.90
2019-03-01T16:08:58.097Z,8.80
2019-03-01T16:11:27.550Z,8.80
2019-03-01T16:13:56.776Z,8.80
2019-03-01T16:16:28.232Z,8.80
2019-03-01T16:18:57.400Z,8.80
2019-03-01T16:21:26.557Z,8.80
2019-03-01T16:23:55.668Z,8.80
2019-03-01T16:26:29.859Z,8.70
2019-03-01T16:28:55.779Z,8.70
2019-03-01T16:31:25.028Z,8.70
2019-03-01T16:33:54.174Z,8.70
2019-03-01T16:36:30.788Z,8.70
2019-03-01T16:39:00.118Z,8.60
2019-03-01T16:41:29.776Z,8.60
2019-03-01T16:44:01.281Z,8.60
2019-03-01T16:46:31.421Z,8.50
2019-03-01T16:49:01.024Z,8.60
2019-03-01T16:51:30.207Z,8.60
2019-03-01T16:53:59.661Z,8.60
2019-03-01T16:56:28.896Z,8.60
2019-03-01T16:59:00.289Z,8.50
2019-03-01T17:01:29.785Z,8.60
2019-03-01T17:04:00.027Z,8.60
2019-03-01T17:06:29.228Z,8.50
2019-03-01T17:08:58.490Z,8.40
2019-03-01T17:11:27.647Z,8.40
2019-03-01T17:13:59.545Z,8.40
2019-03-01T17:16:27.889Z,8.50
2019-03-01T17:18:57.120Z,8.40
2019-03-01T17:21:26.222Z,8.40
2019-03-01T17:23:55.430Z,8.30
2019-03-01T17:26:26.249Z,8.30
2019-03-01T17:28:55.587Z,8.30
2019-03-01T17:31:26.935Z,8.30
2019-03-01T17:33:55.795Z,8.30
2019-03-01T17:36:25.026Z,8.40
2019-03-01T17:38:54.119Z,8.40
2019-03-01T17:41:23.233Z,8.40
2019-03-01T17:43:52.360Z,8.40
2019-03-01T17:46:21.380Z,8.40
2019-03-01T17:48:50.463Z,8.40
2019-03-01T17:51:21.179Z,8.40
2019-03-01T17:53:50.436Z,8.40
2019-03-01T17:56:21.993Z,8.40
2019-03-01T17:58:50.539Z,8.40
2019-03-01T18:01:19.773Z,8.30
2019-03-01T18:03:49.375Z,8.20
2019-03-01T18:06:18.445Z,8.30
2019-03-01T18:08:47.542Z,8.30
2019-03-01T18:11:17.040Z,8.30
2019-03-01T18:13:46.210Z,8.30
2019-03-01T18:16:15.407Z,8.40
2019-03-01T18:18:48.770Z,8.30
2019-03-01T18:21:15.685Z,8.40
2019-03-01T18:23:44.859Z,8.30
2019-03-01T18:26:14.033Z,8.30
2019-03-01T18:28:43.178Z,8.30
2019-03-01T18:31:12.292Z,8.20
2019-03-01T18:33:45.955Z,8.20
2019-03-01T18:36:15.025Z,8.20
2019-03-01T18:38:44.129Z,8.30
2019-03-01T18:41:13.369Z,8.30
2019-03-01T18:43:45.852Z,8.30
2019-03-01T18:46:14.652Z,8.30
2019-03-01T18:48:44.740Z,8.30
2019-03-01T18:51:14.181Z,8.30
2019-03-01T18:53:44.934Z,8.30
2019-03-01T18:56:14.276Z,8.30
2019-03-01T18:58:45.762Z,8.20
2019-03-01T19:01:14.371Z,8.20
2019-03-01T19:03:43.565Z,8.20
2019-03-01T19:06:15.919Z,8.20
2019-03-01T19:08:43.452Z,8.20
2019-03-01T19:11:12.643Z,8.20
2019-03-01T19:13:41.668Z,8.30
2019-03-01T19:16:10.928Z,8.30
2019-03-01T19:18:42.175Z,8.30
2019-03-01T19:21:13.954Z,8.30
2019-03-01T19:23:42.093Z,8.30
2019-03-01T19:26:11.302Z,8.30
2019-03-01T19:28:40.477Z,8.30
2019-03-01T19:31:09.812Z,8.30
2019-03-01T19:33:41.455Z,8.20
2019-03-01T19:36:09.896Z,8.20
2019-03-01T19:38:39.047Z,8.20
2019-03-01T19:41:08.207Z,8.20
2019-03-01T19:43:37.544Z,8.20
2019-03-01T19:46:06.864Z,8.20
2019-03-01T19:48:37.327Z,8.20
2019-03-01T19:51:07.011Z,8.20
2019-03-01T19:53:37.691Z,8.20
2019-03-01T19:56:06.976Z,8.20
2019-03-01T19:58:36.203Z,8.20
2019-03-01T20:01:05.513Z,8.20
2019-03-01T20:03:34.697Z,8.20
2019-03-01T20:06:08.056Z,8.20
2019-03-01T20:08:38.287Z,8.20
2019-03-01T20:11:07.392Z,8.20
2019-03-01T20:13:36.649Z,8.20
2019-03-01T20:16:05.918Z,8.20
2019-03-01T20:18:35.211Z,8.20
2019-03-01T20:21:05.835Z,8.20
2019-03-01T20:23:35.533Z,8.20
2019-03-01T20:26:04.744Z,8.30
2019-03-01T20:28:34.049Z,8.30
2019-03-01T20:31:04.917Z,8.30
2019-03-01T20:33:34.359Z,8.30
2019-03-01T20:36:03.543Z,8.30
2019-03-01T20:38:32.694Z,8.20
2019-03-01T20:41:03.131Z,8.30
2019-03-01T20:43:32.978Z,8.20
2019-03-01T20:46:03.770Z,8.20
2019-03-01T20:48:33.033Z,8.10
2019-03-01T20:51:02.275Z,8.10
2019-03-01T20:53:32.999Z,8.10
2019-03-01T20:56:02.170Z,8.10
2019-03-01T20:58:31.575Z,8.10
2019-03-01T21:01:01.917Z,8.00
2019-03-01T21:03:31.420Z,8.00
2019-03-01T21:06:01.655Z,8.00
2019-03-01T21:09:00.718Z,8.00
2019-03-01T21:11:28.999Z,8.00
2019-03-01T21:13:58.564Z,8.10
2019-03-01T21:16:27.768Z,8.00
2019-03-01T21:19:05.818Z,8.10
2019-03-01T21:21:34.523Z,8.00
2019-03-01T21:24:03.910Z,8.00
2019-03-01T21:26:33.529Z,8.00
2019-03-01T21:29:02.741Z,8.00
2019-03-01T21:31:35.144Z,8.00
2019-03-01T21:34:03.852Z,8.00
2019-03-01T21:36:33.931Z,7.90
2019-03-01T21:39:04.851Z,7.90
2019-03-01T21:41:34.434Z,7.90
2019-03-01T21:44:03.933Z,7.90
2019-03-01T21:46:39.769Z,7.90
2019-03-01T21:49:09.380Z,7.90
2019-03-01T21:51:45.980Z,7.90
2019-03-01T21:54:16.535Z,7.90
2019-03-01T21:56:55.519Z,7.80
2019-03-01T21:59:18.486Z,7.80
2019-03-01T22:01:47.828Z,7.80
2019-03-01T22:04:17.026Z,7.80
2019-03-01T22:06:46.215Z,7.80
2019-03-01T22:09:15.481Z,7.70
2019-03-01T22:11:45.705Z,7.70
2019-03-01T22:14:16.081Z,7.70
2019-03-01T22:16:45.605Z,7.60
2019-03-01T22:19:14.836Z,7.60
2019-03-01T22:21:44.412Z,7.60
2019-03-01T22:24:23.693Z,7.60
2019-03-01T22:26:55.181Z,7.60
2019-03-01T22:29:43.571Z,7.50
2019-03-01T22:32:19.695Z,7.50
2019-03-01T22:34:55.612Z,7.40
2019-03-01T22:37:28.355Z,7.40
2019-03-01T22:39:57.210Z,7.40
2019-03-01T22:42:27.110Z,7.40
2019-03-01T22:44:56.481Z,7.30
2019-03-01T22:47:28.836Z,7.30
2019-03-01T22:50:04.018Z,7.30
2019-03-01T22:52:31.497Z,7.20
2019-03-01T22:55:04.718Z,7.20
2019-03-01T22:57:34.131Z,7.20
2019-03-01T23:00:03.305Z,7.20
2019-03-01T23:02:32.574Z,7.20
2019-03-01T23:05:03.825Z,7.10
2019-03-01T23:07:32.840Z,7.10
2019-03-01T23:10:02.226Z,7.00
2019-03-01T23:12:31.446Z,7.10
2019-03-01T23:15:02.866Z,7.10
2019-03-01T23:17:31.645Z,7.10
2019-03-01T23:20:00.856Z,7.10
2019-03-01T23:22:30.249Z,7.10
2019-03-01T23:24:59.521Z,7.00
2019-03-01T23:27:31.905Z,7.10
2019-03-01T23:29:59.777Z,7.00
2019-03-01T23:32:29.008Z,7.10
2019-03-01T23:34:58.225Z,7.10
2019-03-01T23:37:27.435Z,7.10
2019-03-01T23:39:57.050Z,7.10
2019-03-01T23:42:27.716Z,7.10
2019-03-01T23:44:56.868Z,7.20
2019-03-01T23:47:26.022Z,7.20
2019-03-01T23:49:55.649Z,7.30
2019-03-01T23:52:26.057Z,7.40
2019-03-01T23:54:55.388Z,7.40
2019-03-01T23:57:24.729Z,7.40
